Aérodrome :
LOGIN :

S'inscrire | Disclaimer

   EN    FR    IT 

 










Légende :    VFR   VFR Marginal   IFR   IFR Intensif   IFR Très Intensif
Visi : 
Plafond : 
>= 8 km
>= 3000ft
5 à 8 km
1000 à 3000 ft
1500m à 5 km
500 à 1000 ft
800 à 1500m
200 à 500 ft
< 800m
< 200 ft
Symboles :   Orages  Brouillard  Fortes neiges  Fortes précipitations  Vent > 20 kt
SIGMETs :   Divers  Orages  Givrage  Turbulence  Onde Orograph.  Cendres Volcan.







- Altitude de l'aérodrome : 390 ft
- Code IATA : NQY
- Voir les cartes d'approche


EGHQ - Newquay

DERNIER METAR :
  • 101320Z 27010KT 9999 FEW016 10/// Q1029

METARs EXPIRÉS :
  • 101250Z 26011KT 9999 FEW016 10/// Q1029
  • 101220Z 26009KT 9999 FEW016 11/// Q1029
  • 101150Z 26010KT 9999 R30/1400 FEW018 10/// Q1029
  • 101120Z 27009KT 9999 R30/1400 FEW020 10/// Q1030
  • 101050Z 27009KT 9999 FEW015 10/// Q1030

TAF TAF EGHQ
Valide du 10 à 12h jusqu'au 10 à 21h UTC


101105Z 1012/1021 26008KT 9999 SCT020
Pas de NOTAMs connus pour ce terrain.



MET'MAP, la Météo Aéronautique d'un coup d'oeil ! - Copyright ORBIFLY Décembre 2007 - Disclaimer

ORBIFLY MET'MAP TEAM :

Programmation & Développement : Alexandra Zaïnal
Conception & Développement : Baudouin d'Aumeries
Co-Programmation & Développement : Marc-Olivier Méhu
Soutien technique & logistique : Manuel Goepfert

Contact : metmap@orbifly.com




SOURCES & CREDITS :

   NOAA